Time;durP1;ratioP1;P1;durP2;ratioP2;P2;SDS_P1;SDS_P2;PMS_P1;PMS_P2;Temp;Humidity;BMP_temperature;BMP_pressure;BME280_temperature;BME280_humidity;BME280_pressure;Samples;Min_cycle;Max_cycle;Signal;HPM_P1;HPM_P2
2023/10/30 00:02:09;;;;;;;7.13;3.73;;;;;;;;;;6316723;28;20212;-61
2023/10/30 00:05:11;;;;;;;3.23;2.93;;;;;;;;;;6290648;28;20176;-61
2023/10/30 00:08:12;;;;;;;6.40;3.23;;;;;;;;;;6313850;28;20198;-61
2023/10/30 00:11:13;;;;;;;6.77;3.00;;;;;;;;;;6294789;28;20284;-61
2023/10/30 00:14:14;;;;;;;9.43;3.90;;;;;;;;;;6308586;28;20189;-61
2023/10/30 00:17:16;;;;;;;4.97;2.90;;;;;;;;;;6294028;28;20201;-61
2023/10/30 00:20:17;;;;;;;6.07;3.47;;;;;;;;;;6304534;28;20208;-61
2023/10/30 00:23:18;;;;;;;4.17;2.40;;;;;;;;;;6304559;28;20194;-61
2023/10/30 00:26:19;;;;;;;4.97;3.10;;;;;;;;;;6316550;28;20211;-61
2023/10/30 00:29:20;;;;;;;3.80;2.80;;;;;;;;;;6303964;28;20337;-61
2023/10/30 00:32:21;;;;;;;5.07;2.60;;;;;;;;;;6288321;28;20192;-61
2023/10/30 00:35:22;;;;;;;4.87;2.80;;;;;;;;;;6301153;28;20359;-61
2023/10/30 00:38:23;;;;;;;4.40;2.80;;;;;;;;;;6297091;28;20282;-61
2023/10/30 00:41:25;;;;;;;6.07;3.00;;;;;;;;;;6302934;28;20211;-61
2023/10/30 00:44:27;;;;;;;4.67;2.77;;;;;;;;;;6297488;28;20189;-61
2023/10/30 00:47:28;;;;;;;3.60;2.80;;;;;;;;;;6296185;28;20189;-61
2023/10/30 00:50:32;;;;;;;5.60;2.70;;;;;;;;;;6290995;28;20207;-61
2023/10/30 00:53:33;;;;;;;6.03;2.60;;;;;;;;;;6296121;28;20200;-61
2023/10/30 00:56:34;;;;;;;5.97;2.63;;;;;;;;;;6305532;28;20188;-61
2023/10/30 00:59:35;;;;;;;4.03;2.63;;;;;;;;;;6306850;28;20209;-61
2023/10/30 01:02:36;;;;;;;3.57;2.30;;;;;;;;;;6285812;28;20276;-61
2023/10/30 01:05:37;;;;;;;5.00;3.00;;;;;;;;;;6304217;28;20188;-61
2023/10/30 01:08:38;;;;;;;2.60;2.10;;;;;;;;;;6306019;28;20210;-61
2023/10/30 01:11:39;;;;;;;9.80;2.97;;;;;;;;;;6306420;28;20189;-61
2023/10/30 01:14:40;;;;;;;3.47;2.57;;;;;;;;;;6306065;28;20242;-61
2023/10/30 01:17:41;;;;;;;4.70;2.67;;;;;;;;;;6322841;28;20216;-61
2023/10/30 01:20:43;;;;;;;5.80;2.77;;;;;;;;;;6306597;28;20180;-61
2023/10/30 01:23:44;;;;;;;2.97;2.70;;;;;;;;;;6311805;28;20689;-61
2023/10/30 01:26:45;;;;;;;5.80;2.80;;;;;;;;;;6297491;28;20220;-61
2023/10/30 01:29:46;;;;;;;2.87;2.50;;;;;;;;;;6294284;28;20188;-61
2023/10/30 01:32:47;;;;;;;4.13;2.50;;;;;;;;;;6298868;28;20189;-61
2023/10/30 01:35:48;;;;;;;5.07;2.60;;;10.30;98.20;;;;;;6305693;28;20257;-61
2023/10/30 01:38:49;;;;;;;4.03;2.87;;;10.10;98.30;;;;;;6282436;28;20215;-61
2023/10/30 01:41:50;;;;;;;3.67;2.50;;;10.10;98.90;;;;;;6286233;28;20200;-61
2023/10/30 01:44:55;;;;;;;4.17;2.87;;;10.10;98.20;;;;;;6292981;28;20199;-61
2023/10/30 01:47:55;;;;;;;3.80;3.03;;;10.10;98.40;;;;;;6338526;28;20176;-61
2023/10/30 01:50:57;;;;;;;4.63;2.30;;;10.10;98.50;;;;;;6284594;28;20197;-61
2023/10/30 01:53:58;;;;;;;4.80;2.80;;;10.10;99.20;;;;;;6300687;28;20185;-61
2023/10/30 01:56:59;;;;;;;3.00;2.50;;;10.10;98.40;;;;;;6301932;28;20196;-61
2023/10/30 02:00:02;;;;;;;6.60;2.50;;;10.10;98.60;;;;;;6284828;28;20203;-61
2023/10/30 02:03:03;;;;;;;5.47;2.87;;;10.10;98.60;;;;;;6307693;28;20233;-61
2023/10/30 02:06:05;;;;;;;3.67;2.60;;;;;;;;;;6307004;28;20189;-61
2023/10/30 02:09:06;;;;;;;3.43;2.53;;;;;;;;;;6309240;28;20189;-61
2023/10/30 02:12:07;;;;;;;3.73;2.50;;;;;;;;;;6301630;28;20224;-61
2023/10/30 02:15:08;;;;;;;6.33;2.77;;;;;;;;;;6301569;28;20186;-61
2023/10/30 02:18:10;;;;;;;6.67;2.80;;;;;;;;;;6290776;28;20226;-61
2023/10/30 02:21:12;;;;;;;5.90;2.67;;;;;;;;;;6298580;28;20200;-61
2023/10/30 02:24:13;;;;;;;4.37;2.60;;;;;;;;;;6295213;28;20197;-61
2023/10/30 02:27:14;;;;;;;7.33;3.23;;;;;;;;;;6309364;28;20271;-61
2023/10/30 02:30:15;;;;;;;3.93;2.70;;;;;;;;;;6300805;28;20287;-61
2023/10/30 02:33:16;;;;;;;4.50;2.73;;;;;;;;;;6298333;28;20291;-61
2023/10/30 02:36:17;;;;;;;4.47;2.43;;;;;;;;;;6296580;28;20247;-61
2023/10/30 02:39:18;;;;;;;4.27;2.33;;;;;;;;;;6302583;28;20283;-61
2023/10/30 02:42:19;;;;;;;3.47;2.27;;;;;;;;;;6303599;28;20247;-61
2023/10/30 02:45:20;;;;;;;4.47;2.70;;;;;;;;;;6294260;28;20330;-61
2023/10/30 02:48:21;;;;;;;4.17;3.00;;;;;;;;;;6295491;28;20188;-61
2023/10/30 02:51:22;;;;;;;5.60;2.80;;;;;;;;;;6295237;28;20188;-61
2023/10/30 02:54:23;;;;;;;3.57;2.57;;;;;;;;;;6304256;28;20192;-60
2023/10/30 02:57:25;;;;;;;5.97;2.73;;;;;;;;;;6296747;28;20188;-61
2023/10/30 03:00:26;;;;;;;4.30;2.90;;;;;;;;;;6318425;28;20196;-61
2023/10/30 03:03:27;;;;;;;2.50;2.30;;;;;;;;;;6315650;28;20261;-61
2023/10/30 03:06:28;;;;;;;4.33;2.17;;;;;;;;;;6297928;28;20182;-61
2023/10/30 03:09:30;;;;;;;2.57;2.17;;;;;;;;;;6296819;28;20192;-61
2023/10/30 03:12:31;;;;;;;5.63;2.13;;;;;;;;;;6313728;28;20184;-61
2023/10/30 03:15:32;;;;;;;4.37;2.27;;;;;;;;;;6297385;28;20197;-61
2023/10/30 03:18:34;;;;;;;2.63;2.20;;;;;;;;;;6302894;28;20204;-61
2023/10/30 03:21:35;;;;;;;4.23;2.33;;;;;;;;;;6314752;28;20200;-61
2023/10/30 03:24:36;;;;;;;3.40;2.40;;;;;;;;;;6286201;28;20204;-61
2023/10/30 03:27:38;;;;;;;3.80;1.93;;;;;;;;;;6301278;28;20197;-61
2023/10/30 03:30:39;;;;;;;2.87;2.00;;;;;;;;;;6297428;28;20274;-61
2023/10/30 03:33:40;;;;;;;3.70;2.40;;;;;;;;;;6295559;28;20200;-61
2023/10/30 03:36:41;;;;;;;5.87;2.27;;;;;;;;;;6298904;28;20246;-61
2023/10/30 03:39:42;;;;;;;2.60;2.40;;;;;;;;;;6299434;28;20269;-61
2023/10/30 03:42:43;;;;;;;4.50;2.37;;;;;;;;;;6292387;28;20185;-61
2023/10/30 03:45:45;;;;;;;4.27;2.60;;;;;;;;;;6302785;28;20191;-61
2023/10/30 03:48:46;;;;;;;3.80;2.53;;;;;;;;;;6314952;28;20253;-61
2023/10/30 03:51:48;;;;;;;5.33;2.03;;;;;;;;;;6319924;28;20188;-61
2023/10/30 03:54:49;;;;;;;2.70;2.50;;;;;;;;;;6320048;28;20214;-61
2023/10/30 03:57:50;;;;;;;2.60;2.30;;;;;;;;;;6296511;28;20258;-61
2023/10/30 04:00:51;;;;;;;3.43;2.17;;;;;;;;;;6300450;28;20180;-61
2023/10/30 04:03:52;;;;;;;3.77;2.37;;;;;;;;;;6299955;28;20188;-61
2023/10/30 04:06:53;;;;;;;3.20;2.03;;;;;;;;;;6290648;28;20184;-61
2023/10/30 04:09:55;;;;;;;3.10;2.17;;;;;;;;;;6318373;28;20278;-61
2023/10/30 04:12:56;;;;;;;2.73;2.20;;;;;;;;;;6308371;28;20208;-61
2023/10/30 04:15:57;;;;;;;2.27;2.00;;;;;;;;;;6297440;28;20212;-61
2023/10/30 04:18:58;;;;;;;3.27;2.27;;;;;;;;;;6288636;28;20302;-60
2023/10/30 04:21:59;;;;;;;2.40;1.90;;;;;;;;;;6302762;28;20175;-61
2023/10/30 04:25:01;;;;;;;2.40;1.93;;;;;;;;;;6300668;28;20241;-61
2023/10/30 04:28:02;;;;;;;1.90;1.80;;;;;;;;;;6296605;28;20201;-61
2023/10/30 04:31:06;;;;;;;2.30;2.10;;;;;;;;;;6288143;28;20270;-61
2023/10/30 04:34:07;;;;;;;2.30;2.10;;;;;;;;;;6311864;28;20237;-61
2023/10/30 04:37:08;;;;;;;2.90;2.30;;;;;;;;;;6294576;28;20196;-61
2023/10/30 04:40:09;;;;;;;7.27;2.30;;;;;;;;;;6298919;28;20222;-61
2023/10/30 04:43:10;;;;;;;2.03;1.93;;;;;;;;;;6316732;28;20180;-61
2023/10/30 04:46:11;;;;;;;2.37;2.17;;;;;;;;;;6294423;28;20188;-61
2023/10/30 04:49:12;;;;;;;2.10;1.73;;;;;;;;;;6298401;28;20207;-61
2023/10/30 04:52:13;;;;;;;4.57;1.63;;;;;;;;;;6296244;28;20196;-61
2023/10/30 04:55:14;;;;;;;2.43;1.80;;;;;;;;;;6299108;28;20197;-61
2023/10/30 04:58:16;;;;;;;3.10;2.50;;;;;;;;;;6289367;28;20212;-61
2023/10/30 05:01:17;;;;;;;2.30;2.07;;;;;;;;;;6291097;28;20197;-61
2023/10/30 05:04:18;;;;;;;2.70;1.83;;;;;;;;;;6303149;28;20272;-61
2023/10/30 05:07:19;;;;;;;3.43;2.30;;;;;;;;;;6288755;28;20288;-61
2023/10/30 05:10:20;;;;;;;4.93;2.30;;;;;;;;;;6318598;28;20279;-61
2023/10/30 05:13:21;;;;;;;4.47;2.40;;;;;;;;;;6316191;28;20463;-61
2023/10/30 05:16:23;;;;;;;5.10;2.50;;;;;;;;;;6309261;28;20193;-61
2023/10/30 05:19:24;;;;;;;7.23;2.50;;;;;;;;;;6296157;28;20239;-61
2023/10/30 05:22:25;;;;;;;3.00;2.00;;;;;;;;;;6302233;28;20189;-61
2023/10/30 05:25:26;;;;;;;4.10;2.63;;;;;;;;;;6295789;28;20189;-61
2023/10/30 05:28:27;;;;;;;6.10;2.30;;;;;;;;;;6298737;28;20199;-61
2023/10/30 05:31:28;;;;;;;2.17;2.03;;;;;;;;;;6292895;28;20189;-61
2023/10/30 05:34:31;;;;;;;4.30;2.17;;;;;;;;;;6298333;28;20262;-61
2023/10/30 05:37:32;;;;;;;3.90;2.50;;;;;;;;;;6298291;28;20215;-61
2023/10/30 05:40:33;;;;;;;4.00;2.40;;;;;;;;;;6299684;28;20196;-61
2023/10/30 05:43:34;;;;;;;4.13;2.70;;;;;;;;;;6318561;28;20198;-61
2023/10/30 05:46:35;;;;;;;5.30;2.53;;;;;;;;;;6300672;28;20188;-61
2023/10/30 05:49:36;;;;;;;3.37;2.30;;;;;;;;;;6303774;28;20188;-61
2023/10/30 05:52:38;;;;;;;6.43;2.33;;;;;;;;;;6297354;28;20188;-61
2023/10/30 05:55:39;;;;;;;3.63;2.37;;;;;;;;;;6313671;28;20278;-61
2023/10/30 05:58:40;;;;;;;6.03;2.63;;;;;;;;;;6303973;28;20222;-61
2023/10/30 06:01:41;;;;;;;4.43;2.30;;;;;;;;;;6296530;28;20192;-61
2023/10/30 06:04:42;;;;;;;3.53;2.63;;;;;;;;;;6317311;28;20222;-61
2023/10/30 06:07:43;;;;;;;4.50;2.40;;;;;;;;;;6299042;28;20177;-61
2023/10/30 06:10:44;;;;;;;2.37;2.10;;;;;;;;;;6293111;28;20185;-61
2023/10/30 06:13:45;;;;;;;4.27;2.23;;;;;;;;;;6300813;28;20597;-61
2023/10/30 06:16:47;;;;;;;2.63;2.30;;;;;;;;;;6300162;28;20188;-61
2023/10/30 06:19:48;;;;;;;4.73;2.70;;;;;;;;;;6305736;28;20227;-61
2023/10/30 06:22:50;;;;;;;4.13;2.40;;;;;;;;;;6314459;28;20192;-61
2023/10/30 06:25:51;;;;;;;5.77;2.10;;;;;;;;;;6302817;28;20313;-61
2023/10/30 06:28:52;;;;;;;3.37;2.40;;;;;;;;;;6311510;28;20283;-61
2023/10/30 06:31:54;;;;;;;2.83;1.93;;;;;;;;;;6295200;28;20296;-61
2023/10/30 06:34:55;;;;;;;3.53;2.20;;;;;;;;;;6313298;28;20244;-61
2023/10/30 06:37:56;;;;;;;5.53;2.43;;;;;;;;;;6301725;28;20230;-61
2023/10/30 06:40:57;;;;;;;5.63;2.50;;;;;;;;;;6299418;28;20189;-61
2023/10/30 06:43:58;;;;;;;2.87;2.50;;;;;;;;;;6304070;28;20187;-61
2023/10/30 06:46:59;;;;;;;4.37;2.70;;;;;;;;;;6296296;28;20196;-61
2023/10/30 06:50:00;;;;;;;2.67;2.47;;;;;;;;;;6295425;28;20196;-61
2023/10/30 06:53:01;;;;;;;4.03;2.47;;;;;;;;;;6296437;28;20193;-61
2023/10/30 06:56:02;;;;;;;2.50;2.30;;;;;;;;;;6305540;28;20195;-61
2023/10/30 06:59:04;;;;;;;2.77;2.53;;;;;;;;;;6314911;28;20208;-61
2023/10/30 07:02:05;;;;;;;4.07;2.80;;;;;;;;;;6287283;28;20189;-61
2023/10/30 07:05:06;;;;;;;3.50;2.37;;;;;;;;;;6306959;28;20188;-61
2023/10/30 07:08:07;;;;;;;3.40;3.07;;;;;;;;;;6291398;28;20192;-61
2023/10/30 07:11:09;;;;;;;5.37;3.03;;;;;;;;;;6298971;28;20195;-61
2023/10/30 07:14:10;;;;;;;6.23;3.40;;;;;;;;;;6302940;28;20203;-61
2023/10/30 07:17:11;;;;;;;4.73;3.40;;;;;;;;;;6312846;28;20184;-63
2023/10/30 07:20:12;;;;;;;6.07;3.20;;;;;;;;;;6300838;28;20215;-61
2023/10/30 07:23:14;;;;;;;9.47;3.20;;;;;;;;;;6302780;28;20188;-61
2023/10/30 07:26:16;;;;;;;5.53;3.73;;;;;;;;;;6283496;28;20185;-61
2023/10/30 07:29:17;;;;;;;6.17;3.50;;;;;;;;;;6288090;28;20227;-61
2023/10/30 07:32:18;;;;;;;5.33;3.40;;;;;;;;;;6303671;28;20216;-62
2023/10/30 07:35:20;;;;;;;4.30;3.80;;;;;;;;;;6300068;28;20247;-61
2023/10/30 07:38:21;;;;;;;5.90;3.33;;;;;;;;;;6289069;28;20200;-62
2023/10/30 07:41:22;;;;;;;6.00;3.93;;;;;;;;;;6296813;28;20251;-61
2023/10/30 07:44:23;;;;;;;4.70;3.40;;;;;;;;;;6290209;28;20204;-61
2023/10/30 07:47:24;;;;;;;5.40;3.87;;;;;;;;;;6303189;28;20192;-61
2023/10/30 07:50:25;;;;;;;4.70;3.63;;;;;;;;;;6290262;28;20196;-61
2023/10/30 07:53:26;;;;;;;5.57;3.67;;;;;;;;;;6287537;28;20189;-61
2023/10/30 07:56:28;;;;;;;8.70;4.70;;;;;;;;;;6285943;28;20189;-61
2023/10/30 07:59:29;;;;;;;4.93;3.70;;;;;;;;;;6281512;28;20291;-61
2023/10/30 08:02:30;;;;;;;4.63;3.57;;;;;;;;;;6304084;28;20238;-61
2023/10/30 08:05:32;;;;;;;6.03;3.90;;;;;;;;;;6303280;28;20190;-61
2023/10/30 08:08:33;;;;;;;5.70;4.57;;;;;;;;;;6308096;28;20191;-61
2023/10/30 08:11:34;;;;;;;11.43;4.53;;;;;;;;;;6304087;28;20192;-61
2023/10/30 08:14:35;;;;;;;7.37;4.53;;;;;;;;;;6305025;28;20192;-61
2023/10/30 08:17:37;;;;;;;5.13;3.83;;;;;;;;;;6294298;28;20207;-61
2023/10/30 08:20:38;;;;;;;4.27;3.80;;;;;;;;;;6297775;28;20213;-62
2023/10/30 08:23:39;;;;;;;10.27;4.50;;;;;;;;;;6297502;28;20217;-61
2023/10/30 08:26:40;;;;;;;4.77;4.27;;;;;;;;;;6288386;28;20193;-61
2023/10/30 08:29:41;;;;;;;6.10;4.03;;;;;;;;;;6314361;28;20212;-61
2023/10/30 08:32:42;;;;;;;4.73;3.87;;;;;;;;;;6302667;28;20200;-61
2023/10/30 08:35:46;;;;;;;4.87;4.00;;;;;;;;;;6293184;28;20312;-61
2023/10/30 08:38:47;;;;;;;5.17;4.13;;;;;;;;;;6308506;28;20215;-61
2023/10/30 08:41:48;;;;;;;5.73;4.27;;;;;;;;;;6322965;28;20184;-61
2023/10/30 08:44:49;;;;;;;4.90;4.20;;;;;;;;;;6307930;28;20184;-62
2023/10/30 08:47:50;;;;;;;6.03;4.40;;;;;;;;;;6300234;28;20249;-61
2023/10/30 08:50:51;;;;;;;8.70;4.77;;;;;;;;;;6308132;28;20180;-61
2023/10/30 08:53:52;;;;;;;5.07;3.57;;;;;;;;;;6304240;28;20200;-62
2023/10/30 08:56:54;;;;;;;5.43;3.87;;;;;;;;;;6298377;28;20233;-61
2023/10/30 08:59:55;;;;;;;5.03;4.33;;;;;;;;;;6302785;28;20320;-61
2023/10/30 09:02:56;;;;;;;5.63;4.10;;;;;;;;;;6306759;28;20249;-61
2023/10/30 09:05:57;;;;;;;5.07;3.77;;;;;;;;;;6302916;28;20263;-62
2023/10/30 09:08:58;;;;;;;5.60;4.10;;;;;;;;;;6300738;28;20192;-61
2023/10/30 09:11:59;;;;;;;5.07;4.00;;;;;;;;;;6297578;28;20188;-62
2023/10/30 09:15:00;;;;;;;4.27;3.50;;;;;;;;;;6290665;28;20229;-62
2023/10/30 09:18:01;;;;;;;5.17;3.87;;;;;;;;;;6296218;28;20221;-61
2023/10/30 09:21:02;;;;;;;7.93;4.17;;;10.10;98.20;;;;;;6291096;28;20192;-62
2023/10/30 09:24:03;;;;;;;4.20;3.37;;;;;;;;;;6300806;28;20191;-61
2023/10/30 09:27:04;;;;;;;5.70;3.80;;;;;;;;;;6306143;28;20181;-62
2023/10/30 09:30:06;;;;;;;7.17;3.90;;;;;;;;;;6291380;28;20197;-61
2023/10/30 09:33:07;;;;;;;5.03;4.07;;;;;;;;;;6306751;28;20192;-62
2023/10/30 09:36:08;;;;;;;5.17;4.47;;;;;;;;;;6307733;28;20233;-62
2023/10/30 09:39:09;;;;;;;5.17;4.43;;;;;;;;;;6300164;28;20341;-62
2023/10/30 09:42:10;;;;;;;5.73;4.00;;;;;;;;;;6323670;28;20184;-62
2023/10/30 09:45:12;;;;;;;4.30;3.57;;;;;;;;;;6300453;28;20184;-61
2023/10/30 09:48:14;;;;;;;4.70;4.07;;;;;;;;;;6318153;28;20216;-62
2023/10/30 09:51:15;;;;;;;5.20;4.60;;;;;;;;;;6303206;28;20209;-61
2023/10/30 09:54:18;;;;;;;5.00;4.40;;;;;;;;;;6298389;28;20194;-62
2023/10/30 09:57:19;;;;;;;5.83;4.37;;;;;;;;;;6318611;28;20231;-61
2023/10/30 10:00:21;;;;;;;4.60;3.80;;;;;;;;;;6303445;28;20234;-62
2023/10/30 10:03:22;;;;;;;5.10;4.10;;;;;;;;;;6304839;28;20191;-62
2023/10/30 10:06:23;;;;;;;6.27;4.20;;;;;;;;;;6301002;28;20192;-62
2023/10/30 10:09:24;;;;;;;5.03;3.57;;;;;;;;;;6282898;28;20292;-62
2023/10/30 10:12:25;;;;;;;4.20;3.60;;;;;;;;;;6297978;28;20212;-61
2023/10/30 10:15:26;;;;;;;5.63;4.00;;;;;;;;;;6298807;28;20227;-62
2023/10/30 10:18:35;;;;;;;7.57;4.63;;;12.50;91.10;;;;;;6290938;28;20304;-62
2023/10/30 10:21:57;;;;;;;6.00;3.67;;;13.90;88.60;;;;;;6315777;28;20188;-62
2023/10/30 10:25:00;;;;;;;7.97;4.23;;;13.90;88.60;;;;;;6302092;28;20185;-61
2023/10/30 10:28:01;;;;;;;5.77;3.60;;;13.90;87.20;;;;;;6314252;28;20181;-62
2023/10/30 10:31:02;;;;;;;5.40;4.00;;;13.90;88.60;;;;;;6290978;28;20193;-61
2023/10/30 10:34:03;;;;;;;6.47;3.73;;;14.00;89.40;;;;;;6285722;28;20191;-61
2023/10/30 10:37:04;;;;;;;10.30;4.47;;;14.10;89.30;;;;;;6283071;28;20220;-62
2023/10/30 10:40:05;;;;;;;7.93;4.97;;;14.30;88.60;;;;;;6301882;28;20212;-61
2023/10/30 10:43:08;;;;;;;8.13;4.70;;;14.50;87.30;;;;;;6282448;28;20275;-62
2023/10/30 10:46:08;;;;;;;7.00;4.70;;;14.60;85.90;;;;;;6313361;28;20202;-61
2023/10/30 10:49:09;;;;;;;7.33;5.00;;;14.60;86.30;;;;;;6288597;28;20186;-62
2023/10/30 10:52:15;;;;;;;5.07;4.53;;;14.70;85.60;;;;;;6301636;28;20209;-62
2023/10/30 10:55:23;;;;;;;5.17;4.30;;;14.70;85.00;;;;;;6300307;28;20193;-62
2023/10/30 10:58:40;;;;;;;7.57;4.20;;;14.70;85.00;;;;;;6306837;28;20301;-61
2023/10/30 11:01:42;;;;;;;8.43;4.27;;;14.70;84.20;;;;;;6319306;28;20192;-62
2023/10/30 11:04:43;;;;;;;5.10;3.93;;;14.70;85.00;;;;;;6310690;28;20281;-62
2023/10/30 11:07:54;;;;;;;5.57;4.20;;;14.70;86.20;;;;;;6284357;28;20177;-61
2023/10/30 11:11:17;;;;;;;6.60;4.23;;;14.70;86.00;;;;;;6311914;28;20184;-62
2023/10/30 11:14:50;;;;;;;6.70;3.73;;;14.70;85.70;;;;;;6309341;28;20185;-62
2023/10/30 11:18:18;;;;;;;4.67;3.80;;;14.80;86.70;;;;;;6326468;28;20273;-62
2023/10/30 11:21:25;;;;;;;5.53;4.50;;;14.90;87.20;;;;;;6312546;28;20196;-62
2023/10/30 11:24:38;;;;;;;6.40;4.30;;;15.00;87.10;;;;;;6311454;28;20181;-61
2023/10/30 11:27:39;;;;;;;5.27;4.10;;;15.00;87.00;;;;;;6282175;28;20200;-61
2023/10/30 11:30:44;;;;;;;6.63;4.27;;;15.20;87.20;;;;;;6270264;28;20196;-61
2023/10/30 11:33:45;;;;;;;5.80;4.50;;;15.40;87.00;;;;;;6286126;28;20187;-61
2023/10/30 11:36:47;;;;;;;7.07;4.20;;;15.50;86.70;;;;;;6271726;28;20236;-61
2023/10/30 11:39:49;;;;;;;6.70;3.83;;;15.60;86.80;;;;;;6294951;28;20240;-61
2023/10/30 11:42:57;;;;;;;5.93;4.17;;;15.70;86.60;;;;;;6280323;28;20205;-61
2023/10/30 11:46:02;;;;;;;5.67;3.90;;;15.80;86.90;;;;;;6309226;28;20182;-61
2023/10/30 11:49:03;;;;;;;5.87;4.40;;;;;;;;;;6319153;28;20194;-61
2023/10/30 11:52:12;;;;;;;8.07;4.30;;;15.80;87.00;;;;;;6286817;28;20208;-61
2023/10/30 11:55:13;;;;;;;8.53;4.30;;;16.00;87.50;;;;;;6284128;28;20202;-61
2023/10/30 11:58:14;;;;;;;7.17;4.43;;;16.00;87.50;;;;;;6291258;28;20220;-61
2023/10/30 12:01:16;;;;;;;7.63;4.57;;;16.00;87.80;;;;;;6309423;28;20188;-61
2023/10/30 12:04:27;;;;;;;5.77;4.20;;;16.00;88.00;;;;;;6286558;28;20276;-61
2023/10/30 12:07:27;;;;;;;4.93;3.70;;;16.00;88.30;;;;;;6310138;28;20221;-61
2023/10/30 12:10:28;;;;;;;6.33;3.90;;;16.00;88.90;;;;;;6280029;28;20196;-61
2023/10/30 12:13:29;;;;;;;4.77;3.73;;;16.00;89.20;;;;;;6272432;28;20229;-61
2023/10/30 12:16:30;;;;;;;10.97;5.37;;;16.00;89.60;;;;;;6302015;28;20628;-61
2023/10/30 12:19:31;;;;;;;7.10;5.10;;;16.00;87.70;;;;;;6283506;28;20217;-61
2023/10/30 12:22:37;;;;;;;8.03;4.17;;;16.00;88.50;;;;;;6299939;28;20203;-61
2023/10/30 12:25:38;;;;;;;7.70;4.07;;;16.00;88.30;;;;;;6291038;28;20234;-61
2023/10/30 12:28:39;;;;;;;6.10;3.87;;;16.00;88.70;;;;;;6296050;28;20188;-61
2023/10/30 12:31:39;;;;;;;6.10;4.70;;;16.00;88.90;;;;;;6308335;28;20189;-61
2023/10/30 12:34:40;;;;;;;6.53;4.53;;;16.10;89.10;;;;;;6288867;28;20330;-61
2023/10/30 12:37:41;;;;;;;5.93;4.50;;;16.00;88.20;;;;;;6283184;28;20201;-61
2023/10/30 12:40:44;;;;;;;6.50;5.10;;;16.00;88.90;;;;;;6279552;28;20212;-61
2023/10/30 12:43:45;;;;;;;8.13;5.43;;;16.10;89.40;;;;;;6316742;28;20195;-61
2023/10/30 12:46:46;;;;;;;8.77;4.63;;;16.10;89.40;;;;;;6303149;28;20184;-61
2023/10/30 12:49:47;;;;;;;6.80;4.30;;;16.10;89.70;;;;;;6319732;28;20234;-61
2023/10/30 12:52:48;;;;;;;4.87;4.03;;;16.10;90.00;;;;;;6297294;28;20495;-61
2023/10/30 12:55:49;;;;;;;5.43;4.40;;;16.10;90.40;;;;;;6272370;28;20268;-61
2023/10/30 12:58:50;;;;;;;9.23;5.10;;;16.10;90.70;;;;;;6271494;28;20209;-61
2023/10/30 13:01:51;;;;;;;5.00;4.50;;;;;;;;;;6287741;28;20325;-61
2023/10/30 13:04:52;;;;;;;5.83;4.87;;;;;;;;;;6302817;28;20185;-61
2023/10/30 13:07:53;;;;;;;6.40;5.17;;;;;;;;;;6306646;28;20243;-61
2023/10/30 13:10:54;;;;;;;7.43;5.30;;;;;;;;;;6302670;28;20185;-61
2023/10/30 13:13:55;;;;;;;6.93;5.27;;;;;;;;;;6301162;28;20199;-61
2023/10/30 13:16:56;;;;;;;5.13;4.63;;;;;;;;;;6294480;28;20196;-61
2023/10/30 13:19:57;;;;;;;5.50;4.33;;;;;;;;;;6302050;28;20220;-61
2023/10/30 13:22:59;;;;;;;6.33;4.10;;;;;;;;;;6296035;28;20182;-61
2023/10/30 13:26:00;;;;;;;11.23;8.23;;;;;;;;;;6290604;28;20200;-61
2023/10/30 13:29:01;;;;;;;8.30;5.60;;;;;;;;;;6297377;28;20202;-61
2023/10/30 13:32:02;;;;;;;6.83;5.10;;;;;;;;;;6303146;28;20279;-61
2023/10/30 13:35:04;;;;;;;5.60;4.73;;;;;;;;;;6322656;28;20240;-61
2023/10/30 13:38:05;;;;;;;5.97;4.57;;;;;;;;;;6300309;28;20197;-61
2023/10/30 13:41:06;;;;;;;6.50;4.33;;;;;;;;;;6306872;28;20192;-61
2023/10/30 13:44:07;;;;;;;5.20;4.70;;;;;;;;;;6298758;28;20186;-61
2023/10/30 13:47:08;;;;;;;7.40;6.67;;;;;;;;;;6300220;28;20189;-61
2023/10/30 13:50:09;;;;;;;12.00;8.77;;;;;;;;;;6303245;28;20181;-61
2023/10/30 13:53:10;;;;;;;9.30;7.53;;;;;;;;;;6303527;28;20197;-61
2023/10/30 13:56:11;;;;;;;7.57;6.20;;;;;;;;;;6300928;28;20189;-61
2023/10/30 13:59:12;;;;;;;7.27;6.50;;;;;;;;;;6287546;28;20222;-61
2023/10/30 14:02:14;;;;;;;12.10;6.10;;;;;;;;;;6293859;28;20283;-61
2023/10/30 14:05:15;;;;;;;8.47;5.57;;;;;;;;;;6284741;28;20194;-61
2023/10/30 14:08:16;;;;;;;5.57;5.03;;;;;;;;;;6309240;28;20201;-61
2023/10/30 14:11:18;;;;;;;9.43;5.37;;;;;;;;;;6291158;28;20197;-61
2023/10/30 14:14:19;;;;;;;4.97;4.47;;;;;;;;;;6294686;28;20294;-61
2023/10/30 14:17:20;;;;;;;6.13;4.73;;;;;;;;;;6300638;28;20722;-61
2023/10/30 14:20:21;;;;;;;6.97;4.80;;;;;;;;;;6296422;28;20207;-61
2023/10/30 14:23:22;;;;;;;5.97;4.60;;;;;;;;;;6290241;28;20193;-61
2023/10/30 14:26:23;;;;;;;5.10;4.60;;;;;;;;;;6300446;28;20232;-61
2023/10/30 14:29:24;;;;;;;5.10;4.70;;;;;;;;;;6298029;28;20207;-61
2023/10/30 14:32:25;;;;;;;5.80;4.10;;;;;;;;;;6310092;28;20190;-61
2023/10/30 14:35:26;;;;;;;5.70;4.83;;;;;;;;;;6298269;28;20248;-61
2023/10/30 14:38:27;;;;;;;4.90;4.17;;;;;;;;;;6299544;28;20208;-61
2023/10/30 14:41:31;;;;;;;7.60;4.50;;;;;;;;;;6314668;28;20197;-61
2023/10/30 14:44:32;;;;;;;5.23;4.13;;;;;;;;;;6306094;28;20196;-61
2023/10/30 14:47:33;;;;;;;4.23;3.83;;;;;;;;;;6308839;28;20238;-61
2023/10/30 14:50:34;;;;;;;5.73;4.60;;;;;;;;;;6298517;28;20196;-61
2023/10/30 14:53:35;;;;;;;5.33;4.17;;;;;;;;;;6313643;28;20192;-61
2023/10/30 14:56:36;;;;;;;5.70;4.20;;;;;;;;;;6292055;28;20202;-61
2023/10/30 14:59:38;;;;;;;8.27;5.17;;;;;;;;;;6314437;28;20217;-61
2023/10/30 15:02:39;;;;;;;5.90;4.67;;;;;;;;;;6302349;28;20304;-61
2023/10/30 15:05:40;;;;;;;6.43;4.60;;;;;;;;;;6290135;28;20189;-61
2023/10/30 15:08:41;;;;;;;5.63;3.90;;;;;;;;;;6303568;28;20311;-61
2023/10/30 15:11:42;;;;;;;4.53;3.70;;;;;;;;;;6299584;28;20198;-61
2023/10/30 15:14:43;;;;;;;4.30;3.60;;;;;;;;;;6298102;28;20193;-61
2023/10/30 15:17:44;;;;;;;3.67;3.27;;;;;;;;;;6300111;28;20186;-61
2023/10/30 15:20:45;;;;;;;4.10;3.47;;;;;;;;;;6297117;28;20214;-61
2023/10/30 15:23:46;;;;;;;7.70;4.30;;;;;;;;;;6291593;28;20214;-61
2023/10/30 15:26:48;;;;;;;5.97;3.53;;;;;;;;;;6292658;28;20231;-61
2023/10/30 15:29:49;;;;;;;5.37;3.70;;;;;;;;;;6295605;28;20201;-61
2023/10/30 15:32:50;;;;;;;3.90;3.60;;;;;;;;;;6281971;28;20306;-61
2023/10/30 15:35:51;;;;;;;6.60;3.83;;;;;;;;;;6296367;28;20229;-61
2023/10/30 15:38:52;;;;;;;3.80;3.07;;;;;;;;;;6293126;28;20219;-61
2023/10/30 15:41:53;;;;;;;3.93;3.63;;;;;;;;;;6295969;28;20284;-61
2023/10/30 15:44:54;;;;;;;7.03;4.73;;;;;;;;;;6293504;28;20218;-61
2023/10/30 15:47:55;;;;;;;5.53;4.53;;;;;;;;;;6295385;28;20191;-61
2023/10/30 15:50:56;;;;;;;6.73;4.07;;;;;;;;;;6317707;28;20276;-61
2023/10/30 15:53:58;;;;;;;4.87;4.07;;;;;;;;;;6299258;28;20200;-61
2023/10/30 15:56:59;;;;;;;5.20;4.17;;;;;;;;;;6299636;28;20199;-61
2023/10/30 16:00:00;;;;;;;8.33;3.70;;;;;;;;;;6318264;28;20304;-61
2023/10/30 16:03:01;;;;;;;7.20;4.60;;;;;;;;;;6300039;28;20261;-61
2023/10/30 16:06:02;;;;;;;5.73;4.47;;;;;;;;;;6320107;28;20184;-61
2023/10/30 16:09:03;;;;;;;11.97;5.30;;;;;;;;;;6302353;28;20192;-61
2023/10/30 16:12:05;;;;;;;9.00;5.07;;;;;;;;;;6298410;28;20194;-61
2023/10/30 16:15:09;;;;;;;7.70;6.00;;;;;;;;;;6308758;28;20200;-61
2023/10/30 16:18:11;;;;;;;8.53;5.00;;;;;;;;;;6291439;28;20193;-61
2023/10/30 16:21:12;;;;;;;7.27;4.13;;;;;;;;;;6301247;28;20215;-61
2023/10/30 16:24:13;;;;;;;9.00;3.83;;;;;;;;;;6285535;28;20189;-61
2023/10/30 16:27:16;;;;;;;5.83;3.70;;;;;;;;;;6299786;28;20253;-61
2023/10/30 16:30:17;;;;;;;3.67;2.90;;;;;;;;;;6295046;28;20213;-61
2023/10/30 16:33:20;;;;;;;34.10;24.47;;;24.00;50.00;;;;;;6310084;28;20231;-61
2023/10/30 16:36:21;;;;;;;23.67;18.77;;;13.30;99.90;;;;;;6304164;28;20249;-61
2023/10/30 16:39:21;;;;;;;26.00;16.27;;;13.20;99.90;;;;;;6281280;28;20228;-61
2023/10/30 16:42:22;;;;;;;16.13;10.57;;;13.30;99.90;;;;;;6286265;28;20202;-61
2023/10/30 16:45:23;;;;;;;8.73;6.07;;;13.30;99.90;;;;;;6308638;28;20192;-61
2023/10/30 16:48:24;;;;;;;10.37;5.20;;;13.20;99.90;;;;;;6271700;28;20198;-61
2023/10/30 16:51:25;;;;;;;14.77;9.17;;;13.20;99.90;;;;;;6282571;28;20232;-61
2023/10/30 16:54:26;;;;;;;10.70;7.57;;;13.20;99.90;;;;;;6289724;28;20238;-61
2023/10/30 16:57:26;;;;;;;9.60;6.53;;;13.20;99.90;;;;;;6277909;28;20333;-61
2023/10/30 17:00:27;;;;;;;8.20;6.83;;;13.20;99.90;;;;;;6298176;28;20214;-61
2023/10/30 17:03:28;;;;;;;8.20;6.80;;;13.20;99.90;;;;;;6289955;28;20189;-61
2023/10/30 17:06:29;;;;;;;8.57;6.70;;;13.20;99.90;;;;;;6278543;28;20199;-61
2023/10/30 17:09:29;;;;;;;9.60;7.37;;;13.10;99.90;;;;;;6297190;28;20193;-61
2023/10/30 17:12:30;;;;;;;7.97;7.13;;;13.10;99.90;;;;;;6302673;28;20191;-61
2023/10/30 17:15:31;;;;;;;12.30;6.53;;;13.10;99.90;;;;;;6289279;28;20226;-61
2023/10/30 17:18:31;;;;;;;14.53;7.47;;;13.10;99.90;;;;;;6276775;28;20221;-61
2023/10/30 17:21:32;;;;;;;14.77;6.63;;;13.10;99.90;;;;;;6282291;28;20189;-61
2023/10/30 17:24:33;;;;;;;6.70;5.27;;;13.10;99.90;;;;;;6277493;28;20308;-61
2023/10/30 17:27:34;;;;;;;5.80;5.20;;;13.00;99.90;;;;;;6299654;28;20207;-61
2023/10/30 17:30:35;;;;;;;7.13;5.97;;;13.00;99.90;;;;;;6275421;28;20253;-61